sensor_id;sensor_type;location;lat;lon;timestamp;P1;durP1;ratioP1;P2;durP2;ratioP2
56712;SDS011;42589;45.536;9.032;2023-02-01T00:02:37;97.20;;;60.03;;
56712;SDS011;42589;45.536;9.032;2023-02-01T00:05:40;93.05;;;58.83;;
56712;SDS011;42589;45.536;9.032;2023-02-01T00:08:41;88.15;;;56.60;;
56712;SDS011;42589;45.536;9.032;2023-02-01T00:11:44;87.32;;;54.38;;
56712;SDS011;42589;45.536;9.032;2023-02-01T00:14:45;88.25;;;53.80;;
56712;SDS011;42589;45.536;9.032;2023-02-01T00:17:46;85.30;;;52.67;;
56712;SDS011;42589;45.536;9.032;2023-02-01T00:20:47;80.75;;;51.28;;
56712;SDS011;42589;45.536;9.032;2023-02-01T00:23:49;79.70;;;52.22;;
56712;SDS011;42589;45.536;9.032;2023-02-01T00:26:50;78.47;;;48.75;;
56712;SDS011;42589;45.536;9.032;2023-02-01T00:29:51;80.75;;;49.42;;
56712;SDS011;42589;45.536;9.032;2023-02-01T00:32:51;75.97;;;49.75;;
56712;SDS011;42589;45.536;9.032;2023-02-01T00:35:58;74.03;;;48.58;;
56712;SDS011;42589;45.536;9.032;2023-02-01T00:39:00;79.72;;;47.17;;
56712;SDS011;42589;45.536;9.032;2023-02-01T00:42:01;81.15;;;48.00;;
56712;SDS011;42589;45.536;9.032;2023-02-01T00:45:02;76.80;;;44.83;;
56712;SDS011;42589;45.536;9.032;2023-02-01T00:48:03;80.95;;;49.08;;
56712;SDS011;42589;45.536;9.032;2023-02-01T00:51:07;76.10;;;47.75;;
56712;SDS011;42589;45.536;9.032;2023-02-01T00:54:12;80.13;;;47.92;;
56712;SDS011;42589;45.536;9.032;2023-02-01T00:57:13;82.15;;;48.78;;
56712;SDS011;42589;45.536;9.032;2023-02-01T01:00:14;72.05;;;46.90;;
56712;SDS011;42589;45.536;9.032;2023-02-01T01:03:18;75.22;;;45.20;;
56712;SDS011;42589;45.536;9.032;2023-02-01T01:06:20;72.93;;;44.42;;
56712;SDS011;42589;45.536;9.032;2023-02-01T01:09:26;76.50;;;48.05;;
56712;SDS011;42589;45.536;9.032;2023-02-01T01:12:28;73.15;;;47.03;;
56712;SDS011;42589;45.536;9.032;2023-02-01T01:15:37;72.65;;;44.53;;
56712;SDS011;42589;45.536;9.032;2023-02-01T01:18:40;71.32;;;44.63;;
56712;SDS011;42589;45.536;9.032;2023-02-01T01:21:42;69.10;;;44.50;;
56712;SDS011;42589;45.536;9.032;2023-02-01T01:24:43;69.72;;;43.28;;
56712;SDS011;42589;45.536;9.032;2023-02-01T01:27:44;68.82;;;44.80;;
56712;SDS011;42589;45.536;9.032;2023-02-01T01:30:45;64.00;;;42.53;;
56712;SDS011;42589;45.536;9.032;2023-02-01T01:33:50;69.93;;;42.88;;
56712;SDS011;42589;45.536;9.032;2023-02-01T01:36:52;66.75;;;43.10;;
56712;SDS011;42589;45.536;9.032;2023-02-01T01:39:53;68.68;;;42.50;;
56712;SDS011;42589;45.536;9.032;2023-02-01T01:42:56;65.78;;;40.42;;
56712;SDS011;42589;45.536;9.032;2023-02-01T01:45:57;67.53;;;40.75;;
56712;SDS011;42589;45.536;9.032;2023-02-01T01:52:05;62.63;;;38.78;;
56712;SDS011;42589;45.536;9.032;2023-02-01T01:55:07;60.28;;;39.88;;
56712;SDS011;42589;45.536;9.032;2023-02-01T01:58:09;61.72;;;37.38;;
56712;SDS011;42589;45.536;9.032;2023-02-01T02:01:14;63.78;;;38.30;;
56712;SDS011;42589;45.536;9.032;2023-02-01T02:04:16;61.40;;;39.65;;
56712;SDS011;42589;45.536;9.032;2023-02-01T02:07:19;60.80;;;36.63;;
56712;SDS011;42589;45.536;9.032;2023-02-01T02:10:24;58.75;;;38.13;;
56712;SDS011;42589;45.536;9.032;2023-02-01T02:13:46;57.90;;;36.60;;
56712;SDS011;42589;45.536;9.032;2023-02-01T02:17:03;60.22;;;36.80;;
56712;SDS011;42589;45.536;9.032;2023-02-01T02:23:50;57.55;;;37.47;;
56712;SDS011;42589;45.536;9.032;2023-02-01T02:40:47;58.70;;;37.05;;
56712;SDS011;42589;45.536;9.032;2023-02-01T02:43:53;59.53;;;37.92;;
56712;SDS011;42589;45.536;9.032;2023-02-01T02:47:21;63.30;;;38.30;;
56712;SDS011;42589;45.536;9.032;2023-02-01T02:50:34;54.55;;;36.25;;
56712;SDS011;42589;45.536;9.032;2023-02-01T02:57:30;56.65;;;33.90;;
56712;SDS011;42589;45.536;9.032;2023-02-01T03:00:54;54.60;;;32.85;;
56712;SDS011;42589;45.536;9.032;2023-02-01T03:04:15;55.47;;;33.83;;
56712;SDS011;42589;45.536;9.032;2023-02-01T03:14:45;49.22;;;30.02;;
56712;SDS011;42589;45.536;9.032;2023-02-01T03:17:50;51.83;;;32.45;;
56712;SDS011;42589;45.536;9.032;2023-02-01T03:20:51;51.28;;;32.58;;
56712;SDS011;42589;45.536;9.032;2023-02-01T03:23:56;47.22;;;29.77;;
56712;SDS011;42589;45.536;9.032;2023-02-01T03:30:43;49.38;;;30.05;;
56712;SDS011;42589;45.536;9.032;2023-02-01T03:33:44;47.40;;;28.63;;
56712;SDS011;42589;45.536;9.032;2023-02-01T03:36:48;48.75;;;30.63;;
56712;SDS011;42589;45.536;9.032;2023-02-01T03:40:10;45.90;;;30.27;;
56712;SDS011;42589;45.536;9.032;2023-02-01T03:43:16;46.53;;;29.45;;
56712;SDS011;42589;45.536;9.032;2023-02-01T03:46:25;41.72;;;27.40;;
56712;SDS011;42589;45.536;9.032;2023-02-01T03:49:36;43.90;;;28.92;;
56712;SDS011;42589;45.536;9.032;2023-02-01T03:52:44;43.67;;;27.98;;
56712;SDS011;42589;45.536;9.032;2023-02-01T03:55:51;44.83;;;28.08;;
56712;SDS011;42589;45.536;9.032;2023-02-01T03:58:53;45.63;;;28.20;;
56712;SDS011;42589;45.536;9.032;2023-02-01T04:02:00;47.00;;;29.48;;
56712;SDS011;42589;45.536;9.032;2023-02-01T04:05:01;41.63;;;26.67;;
56712;SDS011;42589;45.536;9.032;2023-02-01T04:08:02;39.72;;;25.13;;
56712;SDS011;42589;45.536;9.032;2023-02-01T04:11:05;38.20;;;26.83;;
56712;SDS011;42589;45.536;9.032;2023-02-01T04:14:05;41.97;;;26.30;;
56712;SDS011;42589;45.536;9.032;2023-02-01T04:17:07;41.80;;;25.25;;
56712;SDS011;42589;45.536;9.032;2023-02-01T04:20:07;41.42;;;25.48;;
56712;SDS011;42589;45.536;9.032;2023-02-01T04:23:09;38.30;;;25.38;;
56712;SDS011;42589;45.536;9.032;2023-02-01T04:26:10;36.75;;;24.42;;
56712;SDS011;42589;45.536;9.032;2023-02-01T04:29:12;39.15;;;25.80;;
56712;SDS011;42589;45.536;9.032;2023-02-01T04:32:13;37.67;;;25.10;;
56712;SDS011;42589;45.536;9.032;2023-02-01T04:35:14;41.70;;;25.13;;
56712;SDS011;42589;45.536;9.032;2023-02-01T04:38:14;41.65;;;26.00;;
56712;SDS011;42589;45.536;9.032;2023-02-01T04:41:15;38.15;;;24.77;;
56712;SDS011;42589;45.536;9.032;2023-02-01T04:44:18;38.88;;;24.30;;
56712;SDS011;42589;45.536;9.032;2023-02-01T04:47:19;36.03;;;24.50;;
56712;SDS011;42589;45.536;9.032;2023-02-01T04:50:20;38.17;;;24.92;;
56712;SDS011;42589;45.536;9.032;2023-02-01T04:53:21;34.40;;;24.23;;
56712;SDS011;42589;45.536;9.032;2023-02-01T04:56:23;35.55;;;23.77;;
56712;SDS011;42589;45.536;9.032;2023-02-01T04:59:24;35.45;;;23.40;;
56712;SDS011;42589;45.536;9.032;2023-02-01T05:02:25;36.03;;;22.42;;
56712;SDS011;42589;45.536;9.032;2023-02-01T05:05:26;35.63;;;22.85;;
56712;SDS011;42589;45.536;9.032;2023-02-01T05:08:27;32.92;;;21.77;;
56712;SDS011;42589;45.536;9.032;2023-02-01T05:11:28;32.42;;;22.00;;
56712;SDS011;42589;45.536;9.032;2023-02-01T05:14:48;32.17;;;21.15;;
56712;SDS011;42589;45.536;9.032;2023-02-01T05:17:49;34.78;;;21.67;;
56712;SDS011;42589;45.536;9.032;2023-02-01T05:20:49;33.30;;;22.75;;
56712;SDS011;42589;45.536;9.032;2023-02-01T05:23:56;38.00;;;23.15;;
56712;SDS011;42589;45.536;9.032;2023-02-01T05:27:10;33.72;;;22.30;;
56712;SDS011;42589;45.536;9.032;2023-02-01T05:30:12;33.83;;;22.02;;
56712;SDS011;42589;45.536;9.032;2023-02-01T05:33:14;34.25;;;22.58;;
56712;SDS011;42589;45.536;9.032;2023-02-01T05:36:15;31.35;;;20.67;;
56712;SDS011;42589;45.536;9.032;2023-02-01T05:39:16;32.55;;;20.05;;
56712;SDS011;42589;45.536;9.032;2023-02-01T05:42:17;36.00;;;20.05;;
56712;SDS011;42589;45.536;9.032;2023-02-01T05:45:18;31.33;;;21.38;;
56712;SDS011;42589;45.536;9.032;2023-02-01T05:48:19;35.47;;;20.95;;
56712;SDS011;42589;45.536;9.032;2023-02-01T05:51:20;33.45;;;21.17;;
56712;SDS011;42589;45.536;9.032;2023-02-01T05:54:21;33.70;;;20.67;;
56712;SDS011;42589;45.536;9.032;2023-02-01T05:57:22;34.00;;;22.23;;
56712;SDS011;42589;45.536;9.032;2023-02-01T06:00:23;34.63;;;21.75;;
56712;SDS011;42589;45.536;9.032;2023-02-01T06:03:24;34.05;;;21.35;;
56712;SDS011;42589;45.536;9.032;2023-02-01T06:06:26;40.60;;;22.55;;
56712;SDS011;42589;45.536;9.032;2023-02-01T06:09:27;36.88;;;20.33;;
56712;SDS011;42589;45.536;9.032;2023-02-01T06:12:28;34.92;;;22.98;;
56712;SDS011;42589;45.536;9.032;2023-02-01T06:15:30;42.35;;;22.40;;
56712;SDS011;42589;45.536;9.032;2023-02-01T06:18:31;39.10;;;22.45;;
56712;SDS011;42589;45.536;9.032;2023-02-01T06:21:32;35.72;;;22.73;;
56712;SDS011;42589;45.536;9.032;2023-02-01T06:24:34;36.38;;;22.83;;
56712;SDS011;42589;45.536;9.032;2023-02-01T06:27:35;36.63;;;22.13;;
56712;SDS011;42589;45.536;9.032;2023-02-01T06:30:36;36.85;;;22.48;;
56712;SDS011;42589;45.536;9.032;2023-02-01T06:33:37;39.80;;;21.77;;
56712;SDS011;42589;45.536;9.032;2023-02-01T06:36:38;39.38;;;22.45;;
56712;SDS011;42589;45.536;9.032;2023-02-01T06:39:40;39.78;;;23.83;;
56712;SDS011;42589;45.536;9.032;2023-02-01T06:42:41;39.30;;;22.33;;
56712;SDS011;42589;45.536;9.032;2023-02-01T06:45:45;40.10;;;22.80;;
56712;SDS011;42589;45.536;9.032;2023-02-01T06:48:47;41.20;;;23.42;;
56712;SDS011;42589;45.536;9.032;2023-02-01T06:51:49;38.13;;;22.50;;
56712;SDS011;42589;45.536;9.032;2023-02-01T06:54:49;43.20;;;22.83;;
56712;SDS011;42589;45.536;9.032;2023-02-01T06:57:54;34.75;;;22.05;;
56712;SDS011;42589;45.536;9.032;2023-02-01T07:00:55;39.97;;;22.00;;
56712;SDS011;42589;45.536;9.032;2023-02-01T07:03:56;39.28;;;22.70;;
56712;SDS011;42589;45.536;9.032;2023-02-01T07:06:57;43.75;;;23.15;;
56712;SDS011;42589;45.536;9.032;2023-02-01T07:09:59;45.35;;;23.52;;
56712;SDS011;42589;45.536;9.032;2023-02-01T07:13:00;39.83;;;23.05;;
56712;SDS011;42589;45.536;9.032;2023-02-01T07:16:02;37.45;;;21.80;;
56712;SDS011;42589;45.536;9.032;2023-02-01T07:19:05;38.97;;;22.17;;
56712;SDS011;42589;45.536;9.032;2023-02-01T07:22:05;39.45;;;20.60;;
56712;SDS011;42589;45.536;9.032;2023-02-01T07:25:07;34.33;;;20.75;;
56712;SDS011;42589;45.536;9.032;2023-02-01T07:28:08;33.50;;;20.48;;
56712;SDS011;42589;45.536;9.032;2023-02-01T07:31:12;41.08;;;21.20;;
56712;SDS011;42589;45.536;9.032;2023-02-01T07:34:22;38.13;;;21.85;;
56712;SDS011;42589;45.536;9.032;2023-02-01T07:37:24;35.92;;;20.67;;
56712;SDS011;42589;45.536;9.032;2023-02-01T07:40:25;33.03;;;19.50;;
56712;SDS011;42589;45.536;9.032;2023-02-01T07:43:28;32.60;;;20.55;;
56712;SDS011;42589;45.536;9.032;2023-02-01T07:46:29;30.75;;;19.48;;
56712;SDS011;42589;45.536;9.032;2023-02-01T07:49:30;34.10;;;18.85;;
56712;SDS011;42589;45.536;9.032;2023-02-01T07:52:32;34.97;;;19.20;;
56712;SDS011;42589;45.536;9.032;2023-02-01T07:55:33;31.63;;;19.90;;
56712;SDS011;42589;45.536;9.032;2023-02-01T07:58:36;37.00;;;20.27;;
56712;SDS011;42589;45.536;9.032;2023-02-01T08:01:37;38.65;;;20.20;;
56712;SDS011;42589;45.536;9.032;2023-02-01T08:04:38;37.72;;;21.25;;
56712;SDS011;42589;45.536;9.032;2023-02-01T08:07:39;40.45;;;23.02;;
56712;SDS011;42589;45.536;9.032;2023-02-01T08:10:41;39.08;;;22.52;;
56712;SDS011;42589;45.536;9.032;2023-02-01T08:13:42;39.50;;;22.58;;
56712;SDS011;42589;45.536;9.032;2023-02-01T08:16:43;45.15;;;23.88;;
56712;SDS011;42589;45.536;9.032;2023-02-01T08:19:45;36.67;;;21.90;;
56712;SDS011;42589;45.536;9.032;2023-02-01T08:22:46;34.92;;;22.52;;
56712;SDS011;42589;45.536;9.032;2023-02-01T08:25:48;32.67;;;21.00;;
56712;SDS011;42589;45.536;9.032;2023-02-01T08:29:00;33.88;;;21.02;;
56712;SDS011;42589;45.536;9.032;2023-02-01T08:32:03;45.10;;;22.08;;
56712;SDS011;42589;45.536;9.032;2023-02-01T08:35:04;36.72;;;21.10;;
56712;SDS011;42589;45.536;9.032;2023-02-01T08:38:06;38.60;;;21.20;;
56712;SDS011;42589;45.536;9.032;2023-02-01T08:41:08;38.05;;;21.88;;
56712;SDS011;42589;45.536;9.032;2023-02-01T08:44:17;35.30;;;20.92;;
56712;SDS011;42589;45.536;9.032;2023-02-01T08:47:19;38.83;;;21.13;;
56712;SDS011;42589;45.536;9.032;2023-02-01T08:50:20;35.45;;;21.17;;
56712;SDS011;42589;45.536;9.032;2023-02-01T08:53:21;32.95;;;21.38;;
56712;SDS011;42589;45.536;9.032;2023-02-01T08:56:23;37.70;;;21.55;;
56712;SDS011;42589;45.536;9.032;2023-02-01T08:59:24;37.25;;;21.55;;
56712;SDS011;42589;45.536;9.032;2023-02-01T09:02:25;39.25;;;21.27;;
56712;SDS011;42589;45.536;9.032;2023-02-01T09:05:26;33.10;;;21.80;;
56712;SDS011;42589;45.536;9.032;2023-02-01T09:08:28;32.85;;;20.55;;
56712;SDS011;42589;45.536;9.032;2023-02-01T09:11:29;31.92;;;20.13;;
56712;SDS011;42589;45.536;9.032;2023-02-01T09:14:30;35.25;;;19.60;;
56712;SDS011;42589;45.536;9.032;2023-02-01T09:17:31;29.83;;;18.58;;
56712;SDS011;42589;45.536;9.032;2023-02-01T09:20:32;30.65;;;19.13;;
56712;SDS011;42589;45.536;9.032;2023-02-01T09:23:34;35.47;;;20.50;;
56712;SDS011;42589;45.536;9.032;2023-02-01T09:26:35;28.60;;;18.55;;
56712;SDS011;42589;45.536;9.032;2023-02-01T09:29:36;27.15;;;16.70;;
56712;SDS011;42589;45.536;9.032;2023-02-01T09:32:37;23.85;;;14.90;;
56712;SDS011;42589;45.536;9.032;2023-02-01T09:35:39;26.05;;;14.88;;
56712;SDS011;42589;45.536;9.032;2023-02-01T09:38:40;22.65;;;13.98;;
56712;SDS011;42589;45.536;9.032;2023-02-01T09:48:41;19.95;;;13.45;;
56712;SDS011;42589;45.536;9.032;2023-02-01T09:51:46;21.80;;;13.60;;
56712;SDS011;42589;45.536;9.032;2023-02-01T09:54:52;21.20;;;13.15;;
56712;SDS011;42589;45.536;9.032;2023-02-01T09:58:02;21.35;;;14.32;;
56712;SDS011;42589;45.536;9.032;2023-02-01T10:01:14;19.80;;;14.43;;
56712;SDS011;42589;45.536;9.032;2023-02-01T10:04:20;28.02;;;14.88;;
56712;SDS011;42589;45.536;9.032;2023-02-01T10:21:38;30.23;;;18.00;;
56712;SDS011;42589;45.536;9.032;2023-02-01T10:24:54;27.02;;;17.80;;
56712;SDS011;42589;45.536;9.032;2023-02-01T10:28:03;24.33;;;16.75;;
56712;SDS011;42589;45.536;9.032;2023-02-01T10:31:04;24.65;;;15.60;;
56712;SDS011;42589;45.536;9.032;2023-02-01T10:34:27;19.52;;;13.48;;
56712;SDS011;42589;45.536;9.032;2023-02-01T10:37:33;21.85;;;14.07;;
56712;SDS011;42589;45.536;9.032;2023-02-01T10:40:36;25.73;;;13.82;;
56712;SDS011;42589;45.536;9.032;2023-02-01T10:43:38;23.88;;;12.70;;
56712;SDS011;42589;45.536;9.032;2023-02-01T10:46:39;22.02;;;13.63;;
56712;SDS011;42589;45.536;9.032;2023-02-01T10:53:25;20.42;;;12.70;;
56712;SDS011;42589;45.536;9.032;2023-02-01T10:56:37;18.45;;;9.98;;
56712;SDS011;42589;45.536;9.032;2023-02-01T10:59:38;17.15;;;10.18;;
56712;SDS011;42589;45.536;9.032;2023-02-01T11:02:39;16.20;;;10.75;;
56712;SDS011;42589;45.536;9.032;2023-02-01T11:05:45;20.98;;;10.00;;
56712;SDS011;42589;45.536;9.032;2023-02-01T11:08:51;17.95;;;10.68;;
56712;SDS011;42589;45.536;9.032;2023-02-01T11:12:22;21.02;;;9.98;;
56712;SDS011;42589;45.536;9.032;2023-02-01T11:15:28;20.83;;;10.25;;
56712;SDS011;42589;45.536;9.032;2023-02-01T11:18:31;19.73;;;9.00;;
56712;SDS011;42589;45.536;9.032;2023-02-01T11:21:35;18.92;;;9.68;;
56712;SDS011;42589;45.536;9.032;2023-02-01T11:24:37;17.13;;;9.32;;
56712;SDS011;42589;45.536;9.032;2023-02-01T11:27:57;17.02;;;9.65;;
56712;SDS011;42589;45.536;9.032;2023-02-01T11:31:01;18.42;;;9.48;;
56712;SDS011;42589;45.536;9.032;2023-02-01T11:34:07;18.77;;;9.88;;
56712;SDS011;42589;45.536;9.032;2023-02-01T11:37:18;14.77;;;9.63;;
56712;SDS011;42589;45.536;9.032;2023-02-01T11:40:33;18.20;;;10.63;;
56712;SDS011;42589;45.536;9.032;2023-02-01T11:43:36;17.08;;;9.10;;
56712;SDS011;42589;45.536;9.032;2023-02-01T11:46:38;15.13;;;9.93;;
56712;SDS011;42589;45.536;9.032;2023-02-01T11:49:39;15.50;;;9.70;;
56712;SDS011;42589;45.536;9.032;2023-02-01T12:26:09;21.48;;;12.38;;
56712;SDS011;42589;45.536;9.032;2023-02-01T12:42:36;22.05;;;11.93;;
56712;SDS011;42589;45.536;9.032;2023-02-01T12:45:51;19.05;;;11.57;;
56712;SDS011;42589;45.536;9.032;2023-02-01T12:48:58;20.35;;;12.05;;
56712;SDS011;42589;45.536;9.032;2023-02-01T12:52:09;18.58;;;11.77;;
56712;SDS011;42589;45.536;9.032;2023-02-01T12:55:16;18.70;;;12.38;;
56712;SDS011;42589;45.536;9.032;2023-02-01T12:58:38;17.83;;;11.77;;
56712;SDS011;42589;45.536;9.032;2023-02-01T13:12:03;16.70;;;9.45;;
56712;SDS011;42589;45.536;9.032;2023-02-01T13:15:33;17.25;;;8.13;;
56712;SDS011;42589;45.536;9.032;2023-02-01T13:18:38;18.45;;;8.20;;
56712;SDS011;42589;45.536;9.032;2023-02-01T13:21:48;15.10;;;8.77;;
56712;SDS011;42589;45.536;9.032;2023-02-01T13:25:13;16.63;;;8.45;;
56712;SDS011;42589;45.536;9.032;2023-02-01T13:42:02;13.35;;;6.63;;
56712;SDS011;42589;45.536;9.032;2023-02-01T13:45:21;13.30;;;6.22;;
56712;SDS011;42589;45.536;9.032;2023-02-01T13:51:45;10.37;;;5.37;;
56712;SDS011;42589;45.536;9.032;2023-02-01T13:54:49;15.23;;;6.28;;
56712;SDS011;42589;45.536;9.032;2023-02-01T13:58:06;11.45;;;6.22;;
56712;SDS011;42589;45.536;9.032;2023-02-01T14:11:05;9.00;;;5.80;;
56712;SDS011;42589;45.536;9.032;2023-02-01T14:14:37;10.88;;;6.00;;
56712;SDS011;42589;45.536;9.032;2023-02-01T14:17:32;12.45;;;5.93;;
56712;SDS011;42589;45.536;9.032;2023-02-01T14:20:42;11.10;;;6.32;;
56712;SDS011;42589;45.536;9.032;2023-02-01T14:27:27;15.93;;;6.50;;
56712;SDS011;42589;45.536;9.032;2023-02-01T14:30:30;10.30;;;6.00;;
56712;SDS011;42589;45.536;9.032;2023-02-01T14:33:32;15.70;;;6.32;;
56712;SDS011;42589;45.536;9.032;2023-02-01T14:36:44;11.57;;;6.40;;
56712;SDS011;42589;45.536;9.032;2023-02-01T14:43:02;12.57;;;6.57;;
56712;SDS011;42589;45.536;9.032;2023-02-01T14:46:04;11.60;;;6.38;;
56712;SDS011;42589;45.536;9.032;2023-02-01T14:49:05;12.30;;;6.00;;
56712;SDS011;42589;45.536;9.032;2023-02-01T14:52:09;10.40;;;6.07;;
56712;SDS011;42589;45.536;9.032;2023-02-01T14:58:52;12.90;;;6.00;;
56712;SDS011;42589;45.536;9.032;2023-02-01T15:01:58;13.75;;;6.45;;
56712;SDS011;42589;45.536;9.032;2023-02-01T15:05:00;12.77;;;6.70;;
56712;SDS011;42589;45.536;9.032;2023-02-01T15:08:07;14.38;;;6.78;;
56712;SDS011;42589;45.536;9.032;2023-02-01T15:11:17;11.27;;;6.38;;
56712;SDS011;42589;45.536;9.032;2023-02-01T15:14:18;13.63;;;7.20;;
56712;SDS011;42589;45.536;9.032;2023-02-01T15:17:20;12.88;;;7.50;;
56712;SDS011;42589;45.536;9.032;2023-02-01T15:20:24;11.82;;;7.05;;
56712;SDS011;42589;45.536;9.032;2023-02-01T15:23:32;13.20;;;7.20;;
56712;SDS011;42589;45.536;9.032;2023-02-01T15:26:33;13.43;;;7.63;;
56712;SDS011;42589;45.536;9.032;2023-02-01T15:29:35;10.55;;;7.18;;
56712;SDS011;42589;45.536;9.032;2023-02-01T15:32:38;14.60;;;7.35;;
56712;SDS011;42589;45.536;9.032;2023-02-01T15:35:41;14.15;;;6.95;;
56712;SDS011;42589;45.536;9.032;2023-02-01T15:38:50;11.00;;;6.95;;
56712;SDS011;42589;45.536;9.032;2023-02-01T15:42:25;14.55;;;7.43;;
56712;SDS011;42589;45.536;9.032;2023-02-01T15:45:28;12.20;;;6.93;;
56712;SDS011;42589;45.536;9.032;2023-02-01T15:48:41;12.00;;;7.10;;
56712;SDS011;42589;45.536;9.032;2023-02-01T15:51:45;12.50;;;7.78;;
56712;SDS011;42589;45.536;9.032;2023-02-01T15:54:49;15.95;;;6.80;;
56712;SDS011;42589;45.536;9.032;2023-02-01T15:57:54;14.10;;;7.63;;
56712;SDS011;42589;45.536;9.032;2023-02-01T16:00:57;12.80;;;7.53;;
56712;SDS011;42589;45.536;9.032;2023-02-01T16:04:02;14.52;;;7.55;;
56712;SDS011;42589;45.536;9.032;2023-02-01T16:11:46;18.20;;;7.55;;
56712;SDS011;42589;45.536;9.032;2023-02-01T16:14:32;13.23;;;6.93;;
56712;SDS011;42589;45.536;9.032;2023-02-01T16:17:32;16.23;;;9.25;;
56712;SDS011;42589;45.536;9.032;2023-02-01T16:20:33;14.15;;;7.57;;
56712;SDS011;42589;45.536;9.032;2023-02-01T16:23:35;17.83;;;8.35;;
56712;SDS011;42589;45.536;9.032;2023-02-01T16:26:37;13.73;;;7.75;;
56712;SDS011;42589;45.536;9.032;2023-02-01T16:29:38;14.77;;;7.82;;
56712;SDS011;42589;45.536;9.032;2023-02-01T16:32:40;13.27;;;8.05;;
56712;SDS011;42589;45.536;9.032;2023-02-01T16:35:41;15.68;;;8.63;;
56712;SDS011;42589;45.536;9.032;2023-02-01T16:38:42;14.20;;;8.48;;
56712;SDS011;42589;45.536;9.032;2023-02-01T16:41:44;15.93;;;8.55;;
56712;SDS011;42589;45.536;9.032;2023-02-01T16:44:47;17.38;;;8.82;;
56712;SDS011;42589;45.536;9.032;2023-02-01T16:47:49;14.57;;;8.75;;
56712;SDS011;42589;45.536;9.032;2023-02-01T16:50:59;18.15;;;9.43;;
56712;SDS011;42589;45.536;9.032;2023-02-01T16:54:03;16.40;;;9.15;;
56712;SDS011;42589;45.536;9.032;2023-02-01T16:57:07;17.63;;;9.07;;
56712;SDS011;42589;45.536;9.032;2023-02-01T17:00:14;20.88;;;10.10;;
56712;SDS011;42589;45.536;9.032;2023-02-01T17:03:17;24.88;;;11.02;;
56712;SDS011;42589;45.536;9.032;2023-02-01T17:06:20;22.27;;;11.10;;
56712;SDS011;42589;45.536;9.032;2023-02-01T17:09:23;26.73;;;15.15;;
56712;SDS011;42589;45.536;9.032;2023-02-01T17:12:26;21.98;;;12.30;;
56712;SDS011;42589;45.536;9.032;2023-02-01T17:15:33;22.25;;;12.65;;
56712;SDS011;42589;45.536;9.032;2023-02-01T17:18:38;22.58;;;12.35;;
56712;SDS011;42589;45.536;9.032;2023-02-01T17:21:41;22.67;;;12.30;;
56712;SDS011;42589;45.536;9.032;2023-02-01T17:24:44;25.35;;;13.27;;
56712;SDS011;42589;45.536;9.032;2023-02-01T17:27:44;26.65;;;13.07;;
56712;SDS011;42589;45.536;9.032;2023-02-01T17:30:46;33.08;;;14.07;;
56712;SDS011;42589;45.536;9.032;2023-02-01T17:33:47;21.75;;;13.32;;
56712;SDS011;42589;45.536;9.032;2023-02-01T17:36:48;26.50;;;13.60;;
56712;SDS011;42589;45.536;9.032;2023-02-01T17:39:50;21.00;;;13.85;;
56712;SDS011;42589;45.536;9.032;2023-02-01T17:42:54;23.25;;;14.77;;
56712;SDS011;42589;45.536;9.032;2023-02-01T17:45:58;25.08;;;15.48;;
56712;SDS011;42589;45.536;9.032;2023-02-01T17:49:02;27.33;;;16.33;;
56712;SDS011;42589;45.536;9.032;2023-02-01T17:52:05;29.70;;;16.90;;
56712;SDS011;42589;45.536;9.032;2023-02-01T17:55:25;25.15;;;16.42;;
56712;SDS011;42589;45.536;9.032;2023-02-01T17:58:26;28.27;;;16.48;;
56712;SDS011;42589;45.536;9.032;2023-02-01T18:01:30;27.83;;;15.25;;
56712;SDS011;42589;45.536;9.032;2023-02-01T18:04:31;24.30;;;13.90;;
56712;SDS011;42589;45.536;9.032;2023-02-01T18:07:33;24.95;;;14.45;;
56712;SDS011;42589;45.536;9.032;2023-02-01T18:10:35;24.52;;;13.95;;
56712;SDS011;42589;45.536;9.032;2023-02-01T18:13:36;23.42;;;14.88;;
56712;SDS011;42589;45.536;9.032;2023-02-01T18:16:37;25.30;;;14.85;;
56712;SDS011;42589;45.536;9.032;2023-02-01T18:19:38;23.15;;;14.57;;
56712;SDS011;42589;45.536;9.032;2023-02-01T18:22:40;20.67;;;13.45;;
56712;SDS011;42589;45.536;9.032;2023-02-01T18:25:41;20.70;;;13.23;;
56712;SDS011;42589;45.536;9.032;2023-02-01T18:28:42;21.38;;;13.90;;
56712;SDS011;42589;45.536;9.032;2023-02-01T18:31:44;21.83;;;13.85;;
56712;SDS011;42589;45.536;9.032;2023-02-01T18:37:50;23.50;;;15.20;;
56712;SDS011;42589;45.536;9.032;2023-02-01T18:40:53;22.65;;;14.63;;
56712;SDS011;42589;45.536;9.032;2023-02-01T18:43:57;26.55;;;14.88;;
56712;SDS011;42589;45.536;9.032;2023-02-01T18:47:05;24.48;;;14.20;;
56712;SDS011;42589;45.536;9.032;2023-02-01T18:50:07;23.75;;;14.48;;
56712;SDS011;42589;45.536;9.032;2023-02-01T18:53:19;21.30;;;14.70;;
56712;SDS011;42589;45.536;9.032;2023-02-01T18:56:20;22.95;;;14.93;;
56712;SDS011;42589;45.536;9.032;2023-02-01T18:59:21;25.05;;;14.73;;
56712;SDS011;42589;45.536;9.032;2023-02-01T19:02:22;24.80;;;16.17;;
56712;SDS011;42589;45.536;9.032;2023-02-01T19:05:25;29.15;;;17.73;;
56712;SDS011;42589;45.536;9.032;2023-02-01T19:08:26;27.63;;;17.48;;
56712;SDS011;42589;45.536;9.032;2023-02-01T19:11:27;28.65;;;18.00;;
56712;SDS011;42589;45.536;9.032;2023-02-01T19:14:28;29.52;;;18.20;;
56712;SDS011;42589;45.536;9.032;2023-02-01T19:17:29;29.30;;;18.40;;
56712;SDS011;42589;45.536;9.032;2023-02-01T19:20:30;25.88;;;18.17;;
56712;SDS011;42589;45.536;9.032;2023-02-01T19:23:31;27.35;;;18.60;;
56712;SDS011;42589;45.536;9.032;2023-02-01T19:26:32;33.55;;;20.10;;
56712;SDS011;42589;45.536;9.032;2023-02-01T19:29:33;27.55;;;19.05;;
56712;SDS011;42589;45.536;9.032;2023-02-01T19:32:33;34.60;;;20.70;;
56712;SDS011;42589;45.536;9.032;2023-02-01T19:35:35;31.60;;;21.38;;
56712;SDS011;42589;45.536;9.032;2023-02-01T19:38:36;34.70;;;21.95;;
56712;SDS011;42589;45.536;9.032;2023-02-01T19:41:37;32.78;;;21.90;;
56712;SDS011;42589;45.536;9.032;2023-02-01T19:44:38;29.05;;;20.98;;
56712;SDS011;42589;45.536;9.032;2023-02-01T19:47:39;33.17;;;22.30;;
56712;SDS011;42589;45.536;9.032;2023-02-01T19:50:41;39.78;;;22.73;;
56712;SDS011;42589;45.536;9.032;2023-02-01T19:53:42;33.45;;;20.98;;
56712;SDS011;42589;45.536;9.032;2023-02-01T19:56:44;35.08;;;22.95;;
56712;SDS011;42589;45.536;9.032;2023-02-01T19:59:46;33.60;;;22.35;;
56712;SDS011;42589;45.536;9.032;2023-02-01T20:02:47;36.92;;;23.23;;
56712;SDS011;42589;45.536;9.032;2023-02-01T20:05:54;35.47;;;22.42;;
56712;SDS011;42589;45.536;9.032;2023-02-01T20:08:57;32.47;;;22.05;;
56712;SDS011;42589;45.536;9.032;2023-02-01T20:11:57;32.25;;;20.35;;
56712;SDS011;42589;45.536;9.032;2023-02-01T20:14:59;29.02;;;20.17;;
56712;SDS011;42589;45.536;9.032;2023-02-01T20:18:00;29.08;;;19.63;;
56712;SDS011;42589;45.536;9.032;2023-02-01T20:21:02;26.65;;;18.50;;
56712;SDS011;42589;45.536;9.032;2023-02-01T20:24:05;22.30;;;14.93;;
56712;SDS011;42589;45.536;9.032;2023-02-01T20:27:06;24.52;;;15.05;;
56712;SDS011;42589;45.536;9.032;2023-02-01T20:30:09;21.23;;;14.32;;
56712;SDS011;42589;45.536;9.032;2023-02-01T20:33:13;22.20;;;14.85;;
56712;SDS011;42589;45.536;9.032;2023-02-01T20:36:14;23.52;;;15.27;;
56712;SDS011;42589;45.536;9.032;2023-02-01T20:39:15;25.55;;;16.08;;
56712;SDS011;42589;45.536;9.032;2023-02-01T20:42:16;25.27;;;15.52;;